IAW912 ORER-ORMM
Flight info
| Callsign | IAW912 |
|---|---|
| Flight time | 1h 8m |
| Altitude | 33000 |
| Route | SOLUK DCT SOBIL M688 VAXEN DCT NOLDO P975 ULDUR |
| Aircraft | B737/M-SDE2E3FGHIRWXY/LB1 |
Departure
| Time | 2026-05-05 08:19 |
|---|---|
| Airport | Erbil International Airport (ORER) |
Arrival
| Time | 2026-05-05 09:27 |
|---|---|
| Airport | Basra International Airport (ORMM) |
| Time | Latitude | Longitude | Altitude | Speed | Heading |
|---|---|---|---|---|---|
| 2026-05-05 07:59 | 36.23458 | 43.95364 | 1321 ft | 0 kts | 89° |
| 2026-05-05 08:07 | 36.23458 | 43.95334 | 1321 ft | 4 kts | 94° |
| 2026-05-05 08:07 | 36.23459 | 43.95301 | 1324 ft | 4 kts | 78° |
| 2026-05-05 08:07 | 36.23449 | 43.95274 | 1326 ft | 4 kts | 51° |
| 2026-05-05 08:08 | 36.23429 | 43.95256 | 1325 ft | 4 kts | 9° |
| 2026-05-05 08:08 | 36.23413 | 43.95254 | 1322 ft | 0 kts | 360° |
| 2026-05-05 08:10 | 36.23421 | 43.95254 | 1321 ft | 2 kts | 360° |
| 2026-05-05 08:10 | 36.23448 | 43.95252 | 1321 ft | 5 kts | 354° |
| 2026-05-05 08:10 | 36.23497 | 43.95243 | 1321 ft | 9 kts | 352° |
| 2026-05-05 08:11 | 36.23568 | 43.95230 | 1321 ft | 11 kts | 352° |
| 2026-05-05 08:11 | 36.23646 | 43.95226 | 1321 ft | 11 kts | 359° |
| 2026-05-05 08:11 | 36.23730 | 43.95226 | 1321 ft | 13 kts | 0° |
| 2026-05-05 08:11 | 36.23828 | 43.95227 | 1321 ft | 15 kts | 0° |
| 2026-05-05 08:12 | 36.23931 | 43.95228 | 1321 ft | 15 kts | 0° |
| 2026-05-05 08:12 | 36.24031 | 43.95229 | 1321 ft | 14 kts | 0° |
| 2026-05-05 08:12 | 36.24126 | 43.95230 | 1321 ft | 13 kts | 0° |
| 2026-05-05 08:12 | 36.24213 | 43.95231 | 1320 ft | 10 kts | 0° |
| 2026-05-05 08:13 | 36.24265 | 43.95189 | 1321 ft | 10 kts | 286° |
| 2026-05-05 08:13 | 36.24268 | 43.95102 | 1321 ft | 11 kts | 270° |
| 2026-05-05 08:13 | 36.24268 | 43.95010 | 1322 ft | 10 kts | 270° |
| 2026-05-05 08:13 | 36.24277 | 43.94923 | 1322 ft | 10 kts | 300° |
| 2026-05-05 08:14 | 36.24343 | 43.94893 | 1322 ft | 12 kts | 359° |
| 2026-05-05 08:14 | 36.24438 | 43.94893 | 1322 ft | 15 kts | 0° |
| 2026-05-05 08:14 | 36.24551 | 43.94893 | 1325 ft | 17 kts | 0° |
| 2026-05-05 08:14 | 36.24679 | 43.94894 | 1325 ft | 19 kts | 0° |
| 2026-05-05 08:15 | 36.24822 | 43.94896 | 1321 ft | 21 kts | 0° |
| 2026-05-05 08:15 | 36.24968 | 43.94897 | 1326 ft | 21 kts | 0° |
| 2026-05-05 08:15 | 36.25110 | 43.94898 | 1323 ft | 20 kts | 0° |
| 2026-05-05 08:15 | 36.25248 | 43.94899 | 1324 ft | 19 kts | 0° |
| 2026-05-05 08:16 | 36.25381 | 43.94900 | 1325 ft | 19 kts | 0° |
| 2026-05-05 08:16 | 36.25510 | 43.94902 | 1325 ft | 18 kts | 0° |
| 2026-05-05 08:16 | 36.25634 | 43.94902 | 1325 ft | 18 kts | 0° |
| 2026-05-05 08:16 | 36.25755 | 43.94904 | 1325 ft | 17 kts | 0° |
| 2026-05-05 08:17 | 36.25870 | 43.94905 | 1325 ft | 16 kts | 0° |
| 2026-05-05 08:17 | 36.25946 | 43.94890 | 1325 ft | 10 kts | 320° |
| 2026-05-05 08:17 | 36.25961 | 43.94812 | 1325 ft | 10 kts | 269° |
| 2026-05-05 08:17 | 36.25960 | 43.94731 | 1325 ft | 9 kts | 265° |
| 2026-05-05 08:18 | 36.25913 | 43.94682 | 1325 ft | 12 kts | 188° |
| 2026-05-05 08:18 | 36.25669 | 43.94678 | 1329 ft | 69 kts | 180° |
| 2026-05-05 08:18 | 36.24961 | 43.94673 | 1323 ft | 132 kts | 180° |
| 2026-05-05 08:18 | 36.23871 | 43.94664 | 1378 ft | 176 kts | 181° |
| 2026-05-05 08:19 | 36.22627 | 43.94668 | 2017 ft | 179 kts | 181° |
| 2026-05-05 08:19 | 36.21381 | 43.94644 | 2765 ft | 178 kts | 181° |
| 2026-05-05 08:19 | 36.20131 | 43.94610 | 3428 ft | 185 kts | 181° |
| 2026-05-05 08:19 | 36.18761 | 43.94592 | 3765 ft | 209 kts | 180° |
| 2026-05-05 08:20 | 36.17244 | 43.94587 | 4146 ft | 228 kts | 180° |
| 2026-05-05 08:20 | 36.15593 | 43.94628 | 4636 ft | 243 kts | 171° |
| 2026-05-05 08:20 | 36.14012 | 43.95387 | 5370 ft | 248 kts | 149° |
| 2026-05-05 08:20 | 36.12547 | 43.96523 | 6211 ft | 251 kts | 149° |
| 2026-05-05 08:21 | 36.11024 | 43.97673 | 6872 ft | 263 kts | 150° |
| 2026-05-05 08:21 | 36.09428 | 43.98860 | 7619 ft | 270 kts | 151° |
| 2026-05-05 08:21 | 36.07814 | 44.00056 | 8541 ft | 272 kts | 152° |
| 2026-05-05 08:21 | 36.06179 | 44.01284 | 9444 ft | 277 kts | 153° |
| 2026-05-05 08:22 | 36.04533 | 44.02530 | 10352 ft | 280 kts | 154° |
| 2026-05-05 08:22 | 36.02830 | 44.03812 | 10696 ft | 304 kts | 154° |
| 2026-05-05 08:22 | 36.00942 | 44.05229 | 10955 ft | 328 kts | 154° |
| 2026-05-05 08:22 | 35.98961 | 44.06725 | 11621 ft | 337 kts | 154° |
| 2026-05-05 08:23 | 35.96951 | 44.08247 | 12463 ft | 340 kts | 155° |
| 2026-05-05 08:23 | 35.94928 | 44.09780 | 13370 ft | 343 kts | 155° |
| 2026-05-05 08:23 | 35.92885 | 44.11326 | 14214 ft | 345 kts | 156° |
| 2026-05-05 08:23 | 35.90826 | 44.12882 | 15067 ft | 348 kts | 156° |
| 2026-05-05 08:24 | 35.88755 | 44.14445 | 15905 ft | 351 kts | 156° |
| 2026-05-05 08:24 | 35.86658 | 44.16025 | 16727 ft | 355 kts | 156° |
| 2026-05-05 08:24 | 35.84537 | 44.17621 | 17523 ft | 359 kts | 156° |
| 2026-05-05 08:24 | 35.82391 | 44.19234 | 18287 ft | 363 kts | 156° |
| 2026-05-05 08:25 | 35.80223 | 44.20863 | 18931 ft | 368 kts | 156° |
| 2026-05-05 08:25 | 35.78028 | 44.22512 | 19622 ft | 371 kts | 156° |
| 2026-05-05 08:25 | 35.75819 | 44.24171 | 20292 ft | 374 kts | 156° |
| 2026-05-05 08:25 | 35.73581 | 44.25850 | 20936 ft | 378 kts | 156° |
| 2026-05-05 08:26 | 35.71320 | 44.27545 | 21574 ft | 382 kts | 156° |
| 2026-05-05 08:26 | 35.69069 | 44.29231 | 22191 ft | 386 kts | 156° |
| 2026-05-05 08:26 | 35.66761 | 44.30959 | 22809 ft | 390 kts | 156° |
| 2026-05-05 08:26 | 35.64429 | 44.32704 | 23379 ft | 395 kts | 156° |
| 2026-05-05 08:27 | 35.62072 | 44.34466 | 23884 ft | 398 kts | 157° |
| 2026-05-05 08:27 | 35.59693 | 44.36245 | 24412 ft | 401 kts | 157° |
| 2026-05-05 08:27 | 35.57301 | 44.38032 | 24931 ft | 404 kts | 157° |
| 2026-05-05 08:27 | 35.54889 | 44.39832 | 25422 ft | 407 kts | 157° |
| 2026-05-05 08:28 | 35.52460 | 44.41643 | 25876 ft | 410 kts | 158° |
| 2026-05-05 08:28 | 35.50009 | 44.43468 | 26308 ft | 413 kts | 158° |
| 2026-05-05 08:28 | 35.47547 | 44.45302 | 26803 ft | 416 kts | 158° |
| 2026-05-05 08:28 | 35.45063 | 44.47150 | 27275 ft | 418 kts | 158° |
| 2026-05-05 08:29 | 35.42561 | 44.49010 | 27732 ft | 422 kts | 158° |
| 2026-05-05 08:29 | 35.40046 | 44.50878 | 28163 ft | 425 kts | 158° |
| 2026-05-05 08:29 | 35.37511 | 44.52760 | 28594 ft | 427 kts | 159° |
| 2026-05-05 08:30 | 35.32393 | 44.56555 | 29464 ft | 432 kts | 159° |
| 2026-05-05 08:30 | 35.29855 | 44.58439 | 30040 ft | 430 kts | 159° |
| 2026-05-05 08:30 | 35.27305 | 44.60332 | 30596 ft | 427 kts | 159° |
| 2026-05-05 08:30 | 35.24770 | 44.62212 | 31098 ft | 425 kts | 160° |
| 2026-05-05 08:31 | 35.22239 | 44.64084 | 31522 ft | 425 kts | 160° |
| 2026-05-05 08:31 | 35.19705 | 44.65954 | 31937 ft | 425 kts | 161° |
| 2026-05-05 08:31 | 35.17173 | 44.67821 | 32382 ft | 424 kts | 161° |
| 2026-05-05 08:31 | 35.14647 | 44.69683 | 32819 ft | 423 kts | 161° |
| 2026-05-05 08:32 | 35.12119 | 44.71544 | 32909 ft | 426 kts | 161° |
| 2026-05-05 08:32 | 35.06947 | 44.74875 | 32924 ft | 409 kts | 172° |
| 2026-05-05 08:32 | 35.04253 | 44.75767 | 32936 ft | 397 kts | 179° |
| 2026-05-05 08:33 | 35.01553 | 44.76490 | 32935 ft | 397 kts | 179° |
| 2026-05-05 08:33 | 34.96189 | 44.77931 | 32920 ft | 397 kts | 179° |
| 2026-05-05 08:34 | 34.90790 | 44.79407 | 32925 ft | 397 kts | 179° |
| 2026-05-05 08:34 | 34.85395 | 44.80898 | 32923 ft | 398 kts | 179° |
| 2026-05-05 08:35 | 34.80000 | 44.82393 | 32902 ft | 398 kts | 179° |
| 2026-05-05 08:35 | 34.74601 | 44.83888 | 32910 ft | 398 kts | 179° |
| 2026-05-05 08:36 | 34.69200 | 44.85381 | 32917 ft | 398 kts | 179° |
| 2026-05-05 08:36 | 34.63799 | 44.86873 | 32916 ft | 398 kts | 179° |
| 2026-05-05 08:37 | 34.58391 | 44.88364 | 32887 ft | 398 kts | 179° |
| 2026-05-05 08:37 | 34.53015 | 44.89845 | 32906 ft | 399 kts | 179° |
| 2026-05-05 08:38 | 34.47603 | 44.91333 | 32910 ft | 399 kts | 179° |
| 2026-05-05 08:38 | 34.42178 | 44.92822 | 32902 ft | 400 kts | 179° |
| 2026-05-05 08:39 | 34.36740 | 44.94314 | 32881 ft | 401 kts | 179° |
| 2026-05-05 08:39 | 34.31302 | 44.95804 | 32900 ft | 401 kts | 179° |
| 2026-05-05 08:40 | 34.25862 | 44.97292 | 32897 ft | 401 kts | 179° |
| 2026-05-05 08:40 | 34.20411 | 44.98782 | 32900 ft | 402 kts | 179° |
| 2026-05-05 08:41 | 34.14991 | 45.00261 | 32874 ft | 402 kts | 179° |
| 2026-05-05 08:41 | 34.09531 | 45.01748 | 32902 ft | 403 kts | 179° |
| 2026-05-05 08:42 | 34.04052 | 45.03238 | 32898 ft | 404 kts | 179° |
| 2026-05-05 08:42 | 33.98557 | 45.04731 | 32875 ft | 405 kts | 179° |
| 2026-05-05 08:43 | 33.93051 | 45.06226 | 32889 ft | 406 kts | 179° |
| 2026-05-05 08:43 | 33.87529 | 45.07723 | 32894 ft | 407 kts | 179° |
| 2026-05-05 08:44 | 33.81996 | 45.09221 | 32878 ft | 408 kts | 179° |
| 2026-05-05 08:44 | 33.76454 | 45.10719 | 32895 ft | 409 kts | 179° |
| 2026-05-05 08:45 | 33.70933 | 45.12210 | 32900 ft | 410 kts | 179° |
| 2026-05-05 08:45 | 33.65364 | 45.13711 | 32904 ft | 410 kts | 179° |
| 2026-05-05 08:46 | 33.59794 | 45.15221 | 32909 ft | 413 kts | 176° |
| 2026-05-05 08:46 | 33.57037 | 45.16382 | 32910 ft | 427 kts | 167° |
| 2026-05-05 08:46 | 33.54374 | 45.18075 | 32905 ft | 441 kts | 159° |
| 2026-05-05 08:47 | 33.49328 | 45.22399 | 32900 ft | 447 kts | 155° |
| 2026-05-05 08:47 | 33.44314 | 45.26811 | 32913 ft | 447 kts | 155° |
| 2026-05-05 08:48 | 33.39290 | 45.31191 | 32920 ft | 446 kts | 156° |
| 2026-05-05 08:48 | 33.34257 | 45.35537 | 32918 ft | 446 kts | 156° |
| 2026-05-05 08:49 | 33.29215 | 45.39872 | 32912 ft | 446 kts | 156° |
| 2026-05-05 08:49 | 33.24171 | 45.44199 | 32893 ft | 447 kts | 156° |
| 2026-05-05 08:50 | 33.19118 | 45.48528 | 32914 ft | 447 kts | 156° |
| 2026-05-05 08:50 | 33.14056 | 45.52861 | 32918 ft | 448 kts | 156° |
| 2026-05-05 08:51 | 33.09012 | 45.57171 | 32895 ft | 449 kts | 156° |
| 2026-05-05 08:51 | 33.03923 | 45.61514 | 32911 ft | 451 kts | 156° |
| 2026-05-05 08:52 | 32.98819 | 45.65863 | 32911 ft | 452 kts | 156° |
| 2026-05-05 08:52 | 32.94560 | 45.69488 | 32890 ft | 453 kts | 155° |
| 2026-05-05 08:53 | 32.89422 | 45.73856 | 32905 ft | 454 kts | 155° |
| 2026-05-05 08:53 | 32.84271 | 45.78228 | 32903 ft | 456 kts | 155° |
| 2026-05-05 08:54 | 32.79103 | 45.82608 | 32898 ft | 457 kts | 155° |
| 2026-05-05 08:54 | 32.73917 | 45.86997 | 32900 ft | 458 kts | 155° |
| 2026-05-05 08:55 | 32.68720 | 45.91389 | 32884 ft | 459 kts | 155° |
| 2026-05-05 08:55 | 32.63508 | 45.95786 | 32895 ft | 460 kts | 155° |
| 2026-05-05 08:56 | 32.58328 | 46.00152 | 32889 ft | 460 kts | 155° |
| 2026-05-05 08:56 | 32.53110 | 46.04542 | 32878 ft | 460 kts | 155° |
| 2026-05-05 08:57 | 32.47889 | 46.08930 | 32890 ft | 460 kts | 155° |
| 2026-05-05 08:57 | 32.42660 | 46.13316 | 32891 ft | 460 kts | 155° |
| 2026-05-05 08:58 | 32.37433 | 46.17695 | 32865 ft | 460 kts | 155° |
| 2026-05-05 08:58 | 32.32210 | 46.22065 | 32878 ft | 460 kts | 155° |
| 2026-05-05 08:59 | 32.26978 | 46.26435 | 32878 ft | 460 kts | 155° |
| 2026-05-05 08:59 | 32.21743 | 46.30801 | 32871 ft | 460 kts | 155° |
| 2026-05-05 09:00 | 32.16509 | 46.35161 | 32865 ft | 460 kts | 155° |
| 2026-05-05 09:00 | 32.11277 | 46.39513 | 32846 ft | 459 kts | 154° |
| 2026-05-05 09:01 | 32.06086 | 46.43824 | 32852 ft | 459 kts | 154° |
| 2026-05-05 09:01 | 32.00866 | 46.48152 | 32854 ft | 459 kts | 154° |
| 2026-05-05 09:02 | 31.95642 | 46.52477 | 32831 ft | 459 kts | 155° |
| 2026-05-05 09:02 | 31.90416 | 46.56799 | 32840 ft | 459 kts | 155° |
| 2026-05-05 09:03 | 31.85179 | 46.61123 | 32833 ft | 460 kts | 154° |
| 2026-05-05 09:03 | 31.79936 | 46.65445 | 32650 ft | 463 kts | 154° |
| 2026-05-05 09:03 | 31.77301 | 46.67614 | 32381 ft | 462 kts | 154° |
| 2026-05-05 09:04 | 31.74672 | 46.69781 | 32125 ft | 461 kts | 154° |
| 2026-05-05 09:04 | 31.72049 | 46.71940 | 31875 ft | 461 kts | 154° |
| 2026-05-05 09:04 | 31.69416 | 46.74103 | 31630 ft | 462 kts | 154° |
| 2026-05-05 09:04 | 31.66779 | 46.76269 | 31391 ft | 463 kts | 154° |
| 2026-05-05 09:05 | 31.64151 | 46.78428 | 31100 ft | 456 kts | 153° |
| 2026-05-05 09:05 | 31.61601 | 46.80527 | 30614 ft | 451 kts | 153° |
| 2026-05-05 09:05 | 31.59039 | 46.82631 | 30006 ft | 449 kts | 153° |
| 2026-05-05 09:05 | 31.56484 | 46.84724 | 29310 ft | 446 kts | 153° |
| 2026-05-05 09:06 | 31.53954 | 46.86795 | 28685 ft | 441 kts | 153° |
| 2026-05-05 09:06 | 31.51452 | 46.88843 | 28059 ft | 436 kts | 152° |
| 2026-05-05 09:06 | 31.48979 | 46.90867 | 27477 ft | 431 kts | 153° |
| 2026-05-05 09:06 | 31.46529 | 46.92869 | 26886 ft | 427 kts | 153° |
| 2026-05-05 09:07 | 31.44105 | 46.94847 | 26297 ft | 423 kts | 153° |
| 2026-05-05 09:07 | 31.41699 | 46.96810 | 25720 ft | 419 kts | 153° |
| 2026-05-05 09:07 | 31.39316 | 46.98752 | 25148 ft | 416 kts | 152° |
| 2026-05-05 09:07 | 31.36956 | 47.00674 | 24602 ft | 412 kts | 152° |
| 2026-05-05 09:08 | 31.34611 | 47.02583 | 24064 ft | 408 kts | 152° |
| 2026-05-05 09:08 | 31.32289 | 47.04473 | 23549 ft | 405 kts | 153° |
| 2026-05-05 09:08 | 31.29982 | 47.06349 | 22975 ft | 402 kts | 153° |
| 2026-05-05 09:08 | 31.27699 | 47.08205 | 22410 ft | 398 kts | 153° |
| 2026-05-05 09:09 | 31.25442 | 47.10040 | 21892 ft | 393 kts | 153° |
| 2026-05-05 09:09 | 31.23241 | 47.11828 | 21364 ft | 388 kts | 153° |
| 2026-05-05 09:09 | 31.21030 | 47.13601 | 20820 ft | 384 kts | 154° |
| 2026-05-05 09:09 | 31.18830 | 47.15359 | 20250 ft | 382 kts | 154° |
| 2026-05-05 09:10 | 31.16649 | 47.17105 | 19728 ft | 378 kts | 154° |
| 2026-05-05 09:10 | 31.14493 | 47.18839 | 19239 ft | 374 kts | 154° |
| 2026-05-05 09:10 | 31.12356 | 47.20560 | 18719 ft | 372 kts | 154° |
| 2026-05-05 09:10 | 31.10237 | 47.22272 | 18228 ft | 369 kts | 154° |
| 2026-05-05 09:11 | 31.08143 | 47.23974 | 17724 ft | 365 kts | 154° |
| 2026-05-05 09:11 | 31.06074 | 47.25655 | 17219 ft | 360 kts | 154° |
| 2026-05-05 09:11 | 31.04014 | 47.27278 | 16688 ft | 352 kts | 158° |
| 2026-05-05 09:11 | 31.01863 | 47.28559 | 16188 ft | 344 kts | 162° |
| 2026-05-05 09:12 | 30.99703 | 47.29705 | 15696 ft | 339 kts | 163° |
| 2026-05-05 09:12 | 30.97554 | 47.30797 | 15192 ft | 335 kts | 163° |
| 2026-05-05 09:12 | 30.95424 | 47.31849 | 14727 ft | 331 kts | 163° |
| 2026-05-05 09:12 | 30.93308 | 47.32870 | 14237 ft | 327 kts | 163° |
| 2026-05-05 09:13 | 30.91205 | 47.33858 | 13781 ft | 324 kts | 163° |
| 2026-05-05 09:13 | 30.89147 | 47.34804 | 13282 ft | 321 kts | 163° |
| 2026-05-05 09:13 | 30.87075 | 47.35740 | 12704 ft | 319 kts | 163° |
| 2026-05-05 09:13 | 30.85007 | 47.36655 | 12154 ft | 317 kts | 163° |
| 2026-05-05 09:14 | 30.82950 | 47.37550 | 11667 ft | 314 kts | 163° |
| 2026-05-05 09:14 | 30.80911 | 47.38427 | 11164 ft | 311 kts | 163° |
| 2026-05-05 09:14 | 30.78947 | 47.39494 | 10710 ft | 311 kts | 155° |
| 2026-05-05 09:14 | 30.77110 | 47.40693 | 10645 ft | 295 kts | 154° |
| 2026-05-05 09:15 | 30.75374 | 47.41862 | 10555 ft | 281 kts | 154° |
| 2026-05-05 09:15 | 30.73706 | 47.42996 | 10287 ft | 275 kts | 154° |
| 2026-05-05 09:15 | 30.72057 | 47.44116 | 9905 ft | 274 kts | 154° |
| 2026-05-05 09:15 | 30.70404 | 47.45225 | 9523 ft | 273 kts | 154° |
| 2026-05-05 09:16 | 30.68755 | 47.46321 | 9110 ft | 272 kts | 154° |
| 2026-05-05 09:16 | 30.67111 | 47.47406 | 8694 ft | 272 kts | 154° |
| 2026-05-05 09:16 | 30.65471 | 47.48484 | 8306 ft | 271 kts | 154° |
| 2026-05-05 09:16 | 30.63832 | 47.49559 | 7912 ft | 270 kts | 154° |
| 2026-05-05 09:17 | 30.62223 | 47.50614 | 7537 ft | 269 kts | 154° |
| 2026-05-05 09:17 | 30.60603 | 47.51675 | 7163 ft | 268 kts | 154° |
| 2026-05-05 09:17 | 30.58983 | 47.52736 | 6788 ft | 267 kts | 154° |
| 2026-05-05 09:17 | 30.57366 | 47.53795 | 6405 ft | 267 kts | 154° |
| 2026-05-05 09:18 | 30.55757 | 47.54855 | 6056 ft | 266 kts | 151° |
| 2026-05-05 09:18 | 30.54308 | 47.56200 | 5684 ft | 267 kts | 141° |
| 2026-05-05 09:18 | 30.52980 | 47.57702 | 5333 ft | 266 kts | 139° |
| 2026-05-05 09:18 | 30.51677 | 47.59215 | 4990 ft | 264 kts | 139° |
| 2026-05-05 09:19 | 30.50388 | 47.60715 | 4696 ft | 260 kts | 139° |
| 2026-05-05 09:19 | 30.49147 | 47.62163 | 4636 ft | 247 kts | 139° |
| 2026-05-05 09:19 | 30.47965 | 47.63550 | 4548 ft | 236 kts | 139° |
| 2026-05-05 09:19 | 30.46837 | 47.64877 | 4466 ft | 226 kts | 139° |
| 2026-05-05 09:20 | 30.45759 | 47.66141 | 4387 ft | 216 kts | 139° |
| 2026-05-05 09:20 | 30.44712 | 47.67359 | 4201 ft | 212 kts | 139° |
| 2026-05-05 09:20 | 30.43670 | 47.68564 | 3960 ft | 210 kts | 139° |
| 2026-05-05 09:20 | 30.42655 | 47.69734 | 3773 ft | 203 kts | 139° |
| 2026-05-05 09:21 | 30.41647 | 47.70880 | 3434 ft | 201 kts | 139° |
| 2026-05-05 09:21 | 30.40681 | 47.71973 | 3286 ft | 190 kts | 138° |
| 2026-05-05 09:21 | 30.39706 | 47.73036 | 2907 ft | 191 kts | 136° |
| 2026-05-05 09:21 | 30.38966 | 47.74318 | 2502 ft | 198 kts | 110° |
| 2026-05-05 09:22 | 30.38857 | 47.75856 | 2291 ft | 188 kts | 79° |
| 2026-05-05 09:22 | 30.39440 | 47.77201 | 2179 ft | 189 kts | 46° |
| 2026-05-05 09:22 | 30.40540 | 47.78015 | 2078 ft | 189 kts | 14° |
| 2026-05-05 09:22 | 30.41838 | 47.78217 | 2008 ft | 192 kts | 4° |
| 2026-05-05 09:23 | 30.43153 | 47.78356 | 1898 ft | 190 kts | 359° |
| 2026-05-05 09:23 | 30.44337 | 47.77908 | 1880 ft | 176 kts | 313° |
| 2026-05-05 09:23 | 30.45121 | 47.76830 | 1875 ft | 174 kts | 309° |
| 2026-05-05 09:23 | 30.45920 | 47.75794 | 1877 ft | 171 kts | 311° |
| 2026-05-05 09:24 | 30.46758 | 47.74829 | 1711 ft | 166 kts | 313° |
| 2026-05-05 09:24 | 30.47570 | 47.73959 | 1531 ft | 149 kts | 315° |
| 2026-05-05 09:24 | 30.48304 | 47.73182 | 1327 ft | 137 kts | 315° |
| 2026-05-05 09:24 | 30.48987 | 47.72461 | 1180 ft | 134 kts | 315° |
| 2026-05-05 09:25 | 30.49682 | 47.71730 | 1011 ft | 136 kts | 314° |
| 2026-05-05 09:25 | 30.50387 | 47.70978 | 891 ft | 138 kts | 314° |
| 2026-05-05 09:25 | 30.51077 | 47.70209 | 684 ft | 138 kts | 314° |
| 2026-05-05 09:25 | 30.51799 | 47.69484 | 478 ft | 137 kts | 316° |
| 2026-05-05 09:26 | 30.52491 | 47.68762 | 346 ft | 132 kts | 313° |
| 2026-05-05 09:26 | 30.53178 | 47.68037 | 212 ft | 136 kts | 314° |
| 2026-05-05 09:26 | 30.53884 | 47.67292 | 50 ft | 134 kts | 315° |
| 2026-05-05 09:26 | 30.54488 | 47.66657 | 48 ft | 96 kts | 317° |
| 2026-05-05 09:27 | 30.54857 | 47.66269 | 47 ft | 43 kts | 319° |
| 2026-05-05 09:27 | 30.55064 | 47.66144 | 49 ft | 25 kts | 346° |
| 2026-05-05 09:27 | 30.55186 | 47.66113 | 46 ft | 14 kts | 348° |
| 2026-05-05 09:27 | 30.55249 | 47.66159 | 45 ft | 12 kts | 83° |
| 2026-05-05 09:28 | 30.55201 | 47.66235 | 45 ft | 14 kts | 137° |
| 2026-05-05 09:28 | 30.55123 | 47.66318 | 45 ft | 17 kts | 137° |
| 2026-05-05 09:28 | 30.55036 | 47.66409 | 45 ft | 17 kts | 138° |
| 2026-05-05 09:28 | 30.54937 | 47.66514 | 45 ft | 21 kts | 137° |
| 2026-05-05 09:29 | 30.54828 | 47.66629 | 45 ft | 19 kts | 137° |
| 2026-05-05 09:29 | 30.54789 | 47.66705 | 45 ft | 10 kts | 78° |
| 2026-05-05 09:29 | 30.54836 | 47.66776 | 45 ft | 12 kts | 47° |
| 2026-05-05 09:29 | 30.54895 | 47.66850 | 43 ft | 12 kts | 47° |
| 2026-05-05 09:30 | 30.54962 | 47.66905 | 45 ft | 11 kts | 39° |
| 2026-05-05 09:30 | 30.55003 | 47.66956 | 45 ft | 5 kts | 48° |
| 2026-05-05 09:30 | 30.55013 | 47.66968 | 45 ft | 0 kts | 47° |